createdAt,value
2023-02-15T00:01:27.079Z,54.57
2023-02-15T00:03:53.564Z,42.17
2023-02-15T00:06:20.002Z,167.67
2023-02-15T00:08:46.381Z,59.97
2023-02-15T00:11:14.709Z,254.60
2023-02-15T00:13:41.714Z,123.37
2023-02-15T00:16:10.576Z,51.83
2023-02-15T00:18:37.779Z,47.00
2023-02-15T00:21:06.499Z,52.63
2023-02-15T00:23:33.406Z,59.57
2023-02-15T00:26:07.478Z,64.17
2023-02-15T00:28:33.919Z,45.53
2023-02-15T00:31:05.231Z,47.90
2023-02-15T00:33:32.181Z,29.43
2023-02-15T00:36:00.622Z,32.47
2023-02-15T00:38:28.165Z,57.87
2023-02-15T00:40:56.148Z,69.93
2023-02-15T00:43:22.688Z,185.43
2023-02-15T00:45:49.364Z,184.27
2023-02-15T00:48:15.860Z,96.87
2023-02-15T00:50:42.281Z,119.80
2023-02-15T00:53:09.349Z,66.50
2023-02-15T00:55:35.780Z,34.00
2023-02-15T00:58:02.228Z,31.73
2023-02-15T01:00:28.690Z,54.77
2023-02-15T01:02:56.882Z,28.63
2023-02-15T01:05:23.264Z,45.63
2023-02-15T01:07:49.659Z,101.67
2023-02-15T01:10:16.970Z,20.10
2023-02-15T01:12:43.375Z,40.33
2023-02-15T01:15:10.255Z,37.77
2023-02-15T01:17:37.202Z,60.03
2023-02-15T01:20:05.073Z,34.27
2023-02-15T01:22:31.440Z,65.70
2023-02-15T01:24:57.818Z,50.67
2023-02-15T01:27:24.907Z,65.67
2023-02-15T01:29:51.354Z,38.80
2023-02-15T01:32:17.784Z,41.47
2023-02-15T01:34:44.422Z,64.10
2023-02-15T01:37:10.811Z,36.57
2023-02-15T01:39:37.299Z,39.97
2023-02-15T01:42:03.820Z,48.73
2023-02-15T01:44:58.651Z,42.97
2023-02-15T01:47:32.620Z,124.67
2023-02-15T01:50:07.008Z,60.80
2023-02-15T01:52:35.313Z,46.97
2023-02-15T01:55:02.518Z,34.10
2023-02-15T01:57:29.987Z,37.43
2023-02-15T02:00:01.549Z,27.07
2023-02-15T02:02:39.953Z,25.43
2023-02-15T02:05:07.702Z,53.37
2023-02-15T02:07:37.700Z,99.93
2023-02-15T02:10:08.179Z,85.23
2023-02-15T02:12:37.272Z,27.97
2023-02-15T02:15:05.280Z,32.90
2023-02-15T02:17:43.079Z,38.47
2023-02-15T02:20:54.167Z,42.20
2023-02-15T02:23:30.681Z,88.13
2023-02-15T02:26:32.864Z,19.10
2023-02-15T02:29:51.857Z,36.77
2023-02-15T02:32:54.884Z,33.37
2023-02-15T02:35:30.699Z,59.40
2023-02-15T02:38:08.837Z,28.83
2023-02-15T02:40:55.917Z,65.83
2023-02-15T02:43:29.582Z,60.87
2023-02-15T02:46:01.410Z,65.83
2023-02-15T02:48:31.886Z,32.93
2023-02-15T02:51:01.475Z,23.43
2023-02-15T02:53:31.098Z,19.97
2023-02-15T02:56:04.010Z,77.30
2023-02-15T02:58:36.429Z,138.93
2023-02-15T03:01:08.662Z,42.03
2023-02-15T03:03:39.344Z,51.60
2023-02-15T03:06:10.080Z,81.33
2023-02-15T03:08:42.686Z,87.50
2023-02-15T03:11:09.710Z,30.03
2023-02-15T03:13:36.292Z,40.07
2023-02-15T03:16:25.813Z,16.87
2023-02-15T03:18:58.097Z,96.20
2023-02-15T03:21:31.854Z,54.37
2023-02-15T03:24:04.644Z,72.50
2023-02-15T03:26:31.809Z,61.23
2023-02-15T03:29:00.980Z,35.67
2023-02-15T03:31:31.465Z,23.67
2023-02-15T03:34:01.819Z,18.13
2023-02-15T03:36:35.574Z,61.67
2023-02-15T03:39:10.033Z,57.43
2023-02-15T03:41:41.908Z,72.13
2023-02-15T03:44:13.927Z,105.30
2023-02-15T03:46:45.787Z,112.93
2023-02-15T03:49:18.321Z,53.50
2023-02-15T03:51:48.787Z,64.40
2023-02-15T03:54:46.028Z,74.17
2023-02-15T03:57:34.521Z,114.97
2023-02-15T04:00:21.244Z,177.77
2023-02-15T04:03:05.215Z,102.30
2023-02-15T04:05:31.672Z,103.70
2023-02-15T04:07:58.739Z,111.47
2023-02-15T04:10:43.437Z,116.40
2023-02-15T04:13:09.823Z,108.63
2023-02-15T04:15:54.199Z,147.00
2023-02-15T04:18:20.618Z,59.87
2023-02-15T04:21:05.466Z,126.40
2023-02-15T04:23:50.869Z,69.40
2023-02-15T04:26:17.601Z,26.63
2023-02-15T04:28:43.969Z,59.37
2023-02-15T04:31:10.461Z,53.70
2023-02-15T04:33:36.846Z,37.93
2023-02-15T04:36:04.129Z,32.70
2023-02-15T04:38:30.584Z,101.07
2023-02-15T04:40:57.628Z,41.23
2023-02-15T04:43:24.107Z,85.37
2023-02-15T04:45:50.668Z,101.60
2023-02-15T04:48:17.510Z,88.97
2023-02-15T04:50:44.293Z,61.53
2023-02-15T04:53:11.667Z,144.20
2023-02-15T04:55:38.086Z,53.70
2023-02-15T04:58:05.100Z,26.77
2023-02-15T05:00:31.472Z,36.27
2023-02-15T05:02:57.867Z,42.67
2023-02-15T05:05:24.236Z,37.27
2023-02-15T05:07:50.606Z,48.47
2023-02-15T05:10:17.206Z,51.13
2023-02-15T05:12:43.637Z,37.77
2023-02-15T05:15:10.812Z,23.13
2023-02-15T05:17:37.250Z,32.47
2023-02-15T05:20:04.586Z,87.67
2023-02-15T05:22:30.968Z,60.63
2023-02-15T05:25:15.805Z,63.70
2023-02-15T05:28:00.598Z,29.50
2023-02-15T05:30:27.819Z,37.40
2023-02-15T05:32:54.384Z,25.87
2023-02-15T05:35:20.786Z,39.00
2023-02-15T05:37:47.163Z,23.83
2023-02-15T05:40:13.608Z,55.57
2023-02-15T05:42:39.981Z,86.20
2023-02-15T05:45:07.552Z,48.20
2023-02-15T05:47:34.602Z,23.87
2023-02-15T05:50:00.986Z,34.70
2023-02-15T05:52:27.363Z,49.43
2023-02-15T05:54:54.410Z,36.63
2023-02-15T05:57:20.759Z,26.17
2023-02-15T05:59:47.122Z,30.17
2023-02-15T06:02:13.620Z,60.33
2023-02-15T06:04:40.657Z,29.20
2023-02-15T06:07:07.008Z,32.67
2023-02-15T06:09:33.394Z,58.80
2023-02-15T06:11:59.775Z,80.87
2023-02-15T06:14:26.158Z,25.80
2023-02-15T06:16:52.519Z,55.23
2023-02-15T06:19:19.243Z,110.23
2023-02-15T06:21:46.262Z,35.77
2023-02-15T06:24:12.707Z,40.37
2023-02-15T06:26:39.093Z,16.70
2023-02-15T06:29:06.362Z,11.90
2023-02-15T06:31:34.889Z,13.97
2023-02-15T06:34:01.674Z,17.00
2023-02-15T06:36:29.561Z,15.77
2023-02-15T06:38:57.140Z,13.13
2023-02-15T06:41:24.107Z,16.63
2023-02-15T06:43:50.913Z,13.67
2023-02-15T06:46:17.328Z,13.93
2023-02-15T06:48:43.757Z,11.63
2023-02-15T06:51:10.156Z,12.87
2023-02-15T06:53:36.657Z,11.73
2023-02-15T06:56:08.590Z,12.30
2023-02-15T06:58:35.301Z,11.90
2023-02-15T07:01:01.702Z,11.90
2023-02-15T07:03:28.061Z,12.03
2023-02-15T07:05:55.465Z,11.67
2023-02-15T07:08:21.906Z,11.40
2023-02-15T07:10:49.564Z,14.83
2023-02-15T07:13:16.398Z,17.43
2023-02-15T07:15:43.798Z,11.97
2023-02-15T07:18:10.895Z,12.13
2023-02-15T07:20:38.313Z,12.77
2023-02-15T07:23:05.389Z,11.50
2023-02-15T07:25:32.425Z,13.07
2023-02-15T07:27:59.705Z,13.43
2023-02-15T07:30:27.745Z,13.13
2023-02-15T07:33:13.929Z,14.37
2023-02-15T07:35:47.392Z,12.23
2023-02-15T07:38:13.842Z,12.87
2023-02-15T07:40:40.244Z,12.87
2023-02-15T07:43:06.608Z,12.33
2023-02-15T07:45:33.693Z,14.20
2023-02-15T07:48:01.280Z,12.70
2023-02-15T07:50:27.683Z,13.80
2023-02-15T07:52:54.061Z,14.80
2023-02-15T07:55:20.581Z,13.30
2023-02-15T07:57:49.036Z,11.83
2023-02-15T08:00:17.199Z,15.53
2023-02-15T08:02:48.720Z,13.07
2023-02-15T08:05:17.164Z,12.60
2023-02-15T08:07:43.542Z,13.30
2023-02-15T08:10:30.232Z,13.67
2023-02-15T08:12:56.617Z,15.43
2023-02-15T08:15:22.975Z,12.77
2023-02-15T08:17:49.980Z,14.17
2023-02-15T08:20:16.503Z,11.93
2023-02-15T08:22:42.871Z,11.03
2023-02-15T08:25:09.252Z,12.73
2023-02-15T08:27:35.625Z,11.87
2023-02-15T08:30:02.051Z,11.90
2023-02-15T08:32:28.553Z,14.23
2023-02-15T08:34:55.555Z,12.67
2023-02-15T08:37:21.888Z,14.60
2023-02-15T08:39:48.263Z,14.40
2023-02-15T08:42:14.625Z,15.63
2023-02-15T08:44:41.007Z,14.47
2023-02-15T08:47:07.378Z,14.60
2023-02-15T08:49:33.791Z,13.40
2023-02-15T08:52:00.951Z,13.27
2023-02-15T08:54:27.530Z,13.70
2023-02-15T08:56:53.948Z,13.47
2023-02-15T08:59:22.370Z,13.43
2023-02-15T09:01:50.730Z,13.30
2023-02-15T09:04:18.120Z,14.47
2023-02-15T09:06:48.326Z,13.50
2023-02-15T09:09:16.352Z,13.37
2023-02-15T09:11:45.081Z,14.00
2023-02-15T09:14:13.853Z,14.27
2023-02-15T09:16:42.256Z,14.77
2023-02-15T09:19:08.891Z,14.80
2023-02-15T09:21:37.493Z,14.10
2023-02-15T09:24:06.700Z,14.23
2023-02-15T09:26:36.888Z,22.53
2023-02-15T09:29:04.269Z,14.63
2023-02-15T09:31:32.633Z,14.17
2023-02-15T09:34:01.177Z,15.00
2023-02-15T09:36:30.928Z,16.13
2023-02-15T09:38:58.865Z,15.70
2023-02-15T09:41:57.217Z,16.00
2023-02-15T09:44:34.513Z,15.80
2023-02-15T09:47:16.815Z,15.77
2023-02-15T09:49:54.536Z,15.67
2023-02-15T09:52:55.320Z,15.10
2023-02-15T09:55:39.420Z,15.13
2023-02-15T09:58:18.560Z,16.10
2023-02-15T10:00:55.599Z,17.10
2023-02-15T10:03:38.064Z,15.90
2023-02-15T10:06:15.987Z,18.97
2023-02-15T10:09:01.389Z,15.07
2023-02-15T10:11:41.190Z,17.37
2023-02-15T10:14:28.663Z,21.70
2023-02-15T10:17:04.655Z,14.83
2023-02-15T10:19:41.013Z,16.37
2023-02-15T10:22:22.513Z,15.90
2023-02-15T10:25:31.272Z,14.73
2023-02-15T10:28:05.032Z,13.87
2023-02-15T10:30:42.491Z,14.97
2023-02-15T10:33:18.613Z,14.63
2023-02-15T10:35:53.976Z,13.53
2023-02-15T10:38:28.793Z,27.27
2023-02-15T10:41:10.186Z,14.17
2023-02-15T10:43:56.853Z,17.00
2023-02-15T10:46:44.833Z,14.10
2023-02-15T10:49:26.859Z,15.10
2023-02-15T10:52:06.005Z,15.37
2023-02-15T10:54:39.508Z,15.07
2023-02-15T10:57:17.674Z,15.00
2023-02-15T11:00:01.122Z,13.60
2023-02-15T11:02:42.076Z,15.20
2023-02-15T11:05:27.378Z,15.70
2023-02-15T11:07:57.554Z,13.97
2023-02-15T11:10:30.960Z,17.77
2023-02-15T11:12:59.196Z,16.27
2023-02-15T11:15:31.678Z,19.60
2023-02-15T11:18:04.300Z,18.83
2023-02-15T11:20:35.747Z,15.80
2023-02-15T11:23:03.118Z,17.47
2023-02-15T11:25:33.213Z,19.23
2023-02-15T11:28:03.802Z,22.63
2023-02-15T11:30:44.473Z,14.53
2023-02-15T11:33:18.890Z,15.13
2023-02-15T11:35:54.923Z,14.93
2023-02-15T11:38:24.503Z,18.20
2023-02-15T11:40:56.497Z,14.17
2023-02-15T11:43:29.356Z,15.93
2023-02-15T11:45:56.059Z,17.93
2023-02-15T11:48:23.518Z,13.33
2023-02-15T11:50:50.007Z,14.17
2023-02-15T11:53:19.360Z,17.67
2023-02-15T11:55:49.347Z,14.10
2023-02-15T11:58:28.863Z,17.37
2023-02-15T12:01:01.552Z,15.77
2023-02-15T12:03:40.351Z,18.73
2023-02-15T12:06:16.740Z,17.00
2023-02-15T12:08:49.972Z,17.10
2023-02-15T12:11:21.495Z,15.27
2023-02-15T12:13:58.729Z,14.53
2023-02-15T12:16:26.323Z,15.33
2023-02-15T12:18:55.768Z,16.30
2023-02-15T12:21:29.069Z,18.00
2023-02-15T12:24:01.091Z,13.23
2023-02-15T12:26:29.875Z,16.53
2023-02-15T12:29:01.722Z,15.00
2023-02-15T12:31:32.547Z,16.37
2023-02-15T12:34:03.432Z,17.27
2023-02-15T12:36:33.046Z,18.00
2023-02-15T12:39:22.366Z,15.67
2023-02-15T12:42:00.590Z,13.60
2023-02-15T12:44:29.222Z,14.13
2023-02-15T12:47:00.647Z,15.37
2023-02-15T12:49:28.623Z,16.50
2023-02-15T12:51:56.235Z,19.67
2023-02-15T12:54:35.673Z,13.53
2023-02-15T12:57:23.349Z,12.23
2023-02-15T12:59:51.211Z,14.13
2023-02-15T13:02:23.844Z,14.70
2023-02-15T13:04:51.865Z,19.10
2023-02-15T13:07:18.436Z,19.90
2023-02-15T13:09:45.234Z,21.00
2023-02-15T13:12:17.048Z,15.83
2023-02-15T13:14:46.336Z,19.47
2023-02-15T13:17:14.789Z,19.87
2023-02-15T13:19:45.074Z,20.07
2023-02-15T13:22:15.847Z,16.67
2023-02-15T13:24:46.883Z,20.43
2023-02-15T13:27:16.922Z,21.20
2023-02-15T13:29:45.994Z,26.57
2023-02-15T13:32:25.955Z,20.43
2023-02-15T13:34:57.141Z,19.07
2023-02-15T13:37:46.256Z,26.07
2023-02-15T13:40:16.254Z,22.27
2023-02-15T13:42:49.320Z,23.40
2023-02-15T13:45:31.100Z,24.23
2023-02-15T13:48:04.773Z,19.03
2023-02-15T13:50:44.653Z,21.60
2023-02-15T13:53:36.382Z,20.83
2023-02-15T13:56:10.576Z,23.57
2023-02-15T13:58:59.232Z,25.13
2023-02-15T14:01:33.111Z,27.33
2023-02-15T14:04:33.869Z,26.77
2023-02-15T14:07:38.680Z,24.47
2023-02-15T14:10:28.797Z,19.93
2023-02-15T14:13:18.475Z,24.53
2023-02-15T14:15:49.466Z,23.40
2023-02-15T14:18:23.713Z,20.47
2023-02-15T14:21:00.868Z,22.07
2023-02-15T14:23:42.754Z,20.80
2023-02-15T14:26:18.380Z,25.30
2023-02-15T14:28:51.720Z,18.53
2023-02-15T14:31:26.733Z,22.07
2023-02-15T14:33:55.805Z,21.60
2023-02-15T14:36:25.093Z,16.77
2023-02-15T14:38:59.422Z,18.67
2023-02-15T14:41:33.207Z,19.60
2023-02-15T14:44:08.975Z,20.03
2023-02-15T14:46:43.133Z,20.07
2023-02-15T14:49:12.903Z,24.60
2023-02-15T14:51:56.889Z,17.33
2023-02-15T14:54:57.944Z,16.50
2023-02-15T14:57:34.634Z,19.43
2023-02-15T15:03:21.584Z,19.97
2023-02-15T15:05:52.080Z,20.37
2023-02-15T15:08:32.295Z,15.47
2023-02-15T15:11:43.992Z,21.63
2023-02-15T15:14:39.336Z,15.27
2023-02-15T15:17:07.101Z,23.07
2023-02-15T15:20:07.421Z,19.07
2023-02-15T15:22:36.844Z,22.17
2023-02-15T15:25:05.307Z,19.37
2023-02-15T15:27:53.526Z,16.33
2023-02-15T15:30:49.591Z,19.97
2023-02-15T15:33:40.036Z,19.07
2023-02-15T15:36:41.932Z,19.70
2023-02-15T15:39:27.858Z,20.90
2023-02-15T15:42:01.713Z,17.37
2023-02-15T15:45:11.015Z,20.90
2023-02-15T15:48:06.375Z,19.53
2023-02-15T15:50:34.001Z,16.90
2023-02-15T15:53:02.832Z,17.27
2023-02-15T15:55:32.650Z,23.53
2023-02-15T15:58:02.647Z,17.80
2023-02-15T16:00:36.789Z,23.57
2023-02-15T16:03:04.556Z,19.97
2023-02-15T16:05:38.104Z,18.90
2023-02-15T16:08:04.989Z,20.50
2023-02-15T16:10:34.145Z,20.43
2023-02-15T16:13:02.088Z,24.83
2023-02-15T16:15:36.062Z,17.87
2023-02-15T16:18:03.306Z,20.47
2023-02-15T16:20:32.703Z,18.90
2023-02-15T16:23:16.644Z,19.30
2023-02-15T16:25:53.388Z,21.77
2023-02-15T16:28:20.484Z,19.83
2023-02-15T16:31:05.428Z,20.60
2023-02-15T16:33:37.673Z,18.17
2023-02-15T16:36:08.068Z,23.97
2023-02-15T16:39:09.683Z,22.27
2023-02-15T16:41:37.973Z,25.03
2023-02-15T16:44:14.027Z,25.27
2023-02-15T16:46:44.579Z,20.73
2023-02-15T16:49:17.916Z,19.33
2023-02-15T16:51:53.866Z,24.87
2023-02-15T16:54:22.371Z,22.57
2023-02-15T16:56:49.214Z,23.77
2023-02-15T16:59:28.043Z,23.23
2023-02-15T17:01:54.692Z,19.37
2023-02-15T17:04:28.959Z,22.73
2023-02-15T17:07:01.696Z,20.23
2023-02-15T17:09:28.112Z,20.57
2023-02-15T17:11:54.621Z,20.07
2023-02-15T17:14:21.690Z,24.73
2023-02-15T17:16:50.825Z,21.27
2023-02-15T17:19:21.429Z,23.40
2023-02-15T17:21:51.009Z,22.83
2023-02-15T17:24:23.615Z,21.10
2023-02-15T17:26:53.924Z,22.10
2023-02-15T17:29:26.365Z,25.03
2023-02-15T17:31:57.639Z,20.70
2023-02-15T17:34:47.670Z,19.40
2023-02-15T17:37:24.380Z,18.83
2023-02-15T17:39:51.763Z,22.33
2023-02-15T17:42:18.164Z,22.83
2023-02-15T17:44:44.751Z,19.60
2023-02-15T17:47:15.686Z,18.70
2023-02-15T17:49:42.344Z,21.83
2023-02-15T17:52:12.179Z,22.17
2023-02-15T17:54:56.819Z,21.97
2023-02-15T17:57:25.678Z,20.97
2023-02-15T18:00:10.616Z,23.80
2023-02-15T18:02:58.153Z,24.70
2023-02-15T18:05:43.089Z,20.47
2023-02-15T18:08:30.654Z,22.27
2023-02-15T18:11:15.232Z,18.97
2023-02-15T18:13:42.472Z,21.13
2023-02-15T18:16:13.868Z,19.77
2023-02-15T18:18:40.660Z,20.07
2023-02-15T18:21:11.086Z,22.30
2023-02-15T18:23:38.824Z,23.53
2023-02-15T18:26:06.192Z,21.57
2023-02-15T18:28:33.231Z,22.47
2023-02-15T18:31:00.706Z,19.20
2023-02-15T18:33:34.655Z,21.40
2023-02-15T18:36:02.626Z,22.80
2023-02-15T18:38:29.556Z,24.27
2023-02-15T18:40:55.989Z,21.50
2023-02-15T18:43:22.411Z,25.77
2023-02-15T18:45:48.824Z,22.90
2023-02-15T18:48:15.972Z,21.87
2023-02-15T18:50:42.439Z,21.93
2023-02-15T18:53:17.098Z,24.00
2023-02-15T18:55:43.685Z,20.53
2023-02-15T18:58:15.362Z,25.13
2023-02-15T19:00:42.716Z,24.43
2023-02-15T19:03:11.820Z,22.43
2023-02-15T19:05:41.529Z,22.13
2023-02-15T19:08:16.186Z,24.90
2023-02-15T19:10:42.694Z,23.63
2023-02-15T19:13:09.651Z,22.23
2023-02-15T19:15:36.359Z,21.33
2023-02-15T19:18:02.958Z,29.80
2023-02-15T19:20:31.857Z,28.70
2023-02-15T19:23:00.957Z,25.47
2023-02-15T19:25:30.621Z,22.37
2023-02-15T19:28:00.112Z,24.40
2023-02-15T19:30:29.642Z,23.73
2023-02-15T19:32:56.942Z,26.37
2023-02-15T19:35:26.129Z,22.93
2023-02-15T19:37:55.176Z,27.07
2023-02-15T19:40:26.925Z,29.37
2023-02-15T19:42:54.795Z,26.23
2023-02-15T19:45:26.210Z,26.87
2023-02-15T19:47:54.458Z,25.07
2023-02-15T19:50:22.400Z,23.40
2023-02-15T19:52:49.641Z,24.70
2023-02-15T19:55:25.830Z,25.93
2023-02-15T19:57:53.612Z,26.70
2023-02-15T20:00:47.058Z,27.73
2023-02-15T20:03:13.639Z,28.10
2023-02-15T20:05:41.606Z,25.33
2023-02-15T20:08:16.728Z,26.97
2023-02-15T20:10:45.434Z,25.13
2023-02-15T20:13:16.629Z,24.93
2023-02-15T20:15:47.221Z,26.63
2023-02-15T20:18:14.121Z,24.07
2023-02-15T20:20:45.067Z,24.83
2023-02-15T20:23:19.726Z,27.37
2023-02-15T20:25:47.247Z,26.03
2023-02-15T20:28:16.673Z,26.37
2023-02-15T20:30:43.252Z,25.77
2023-02-15T20:33:09.766Z,26.03
2023-02-15T20:35:40.613Z,28.40
2023-02-15T20:38:16.820Z,25.37
2023-02-15T20:41:03.563Z,27.33
2023-02-15T20:43:30.963Z,25.40
2023-02-15T20:45:57.454Z,24.50
2023-02-15T20:48:23.928Z,26.10
2023-02-15T20:50:52.405Z,26.53
2023-02-15T20:53:20.333Z,26.30
2023-02-15T20:55:47.398Z,23.90
2023-02-15T20:58:20.860Z,26.80
2023-02-15T21:00:48.548Z,29.30
2023-02-15T21:03:16.903Z,28.87
2023-02-15T21:05:44.708Z,26.43
2023-02-15T21:08:12.878Z,32.20
2023-02-15T21:10:41.297Z,32.53
2023-02-15T21:13:19.358Z,27.13
2023-02-15T21:15:45.850Z,29.40
2023-02-15T21:18:16.765Z,30.00
2023-02-15T21:20:46.081Z,27.43
2023-02-15T21:23:15.610Z,36.80
2023-02-15T21:25:44.485Z,31.83
2023-02-15T21:28:17.448Z,32.33
2023-02-15T21:30:43.888Z,30.70
2023-02-15T21:33:10.578Z,29.50
2023-02-15T21:35:37.866Z,29.23
2023-02-15T21:38:05.711Z,30.10
2023-02-15T21:40:32.661Z,29.00
2023-02-15T21:43:17.676Z,29.07
2023-02-15T21:46:02.100Z,29.93
2023-02-15T21:48:28.503Z,32.33
2023-02-15T21:51:13.929Z,31.80
2023-02-15T21:53:42.340Z,30.60
2023-02-15T21:56:11.944Z,32.97
2023-02-15T21:58:38.577Z,31.23
2023-02-15T22:01:06.084Z,30.37
2023-02-15T22:03:34.825Z,33.27
2023-02-15T22:06:02.494Z,29.70
2023-02-15T22:08:29.492Z,27.73
2023-02-15T22:10:56.702Z,30.33
2023-02-15T22:13:28.186Z,25.67
2023-02-15T22:15:54.973Z,28.60
2023-02-15T22:18:23.921Z,23.10
2023-02-15T22:20:51.035Z,26.73
2023-02-15T22:23:18.444Z,24.13
2023-02-15T22:25:48.377Z,24.90
2023-02-15T22:28:16.037Z,31.70
2023-02-15T22:30:44.778Z,21.03
2023-02-15T22:33:24.842Z,23.23
2023-02-15T22:35:51.678Z,21.33
2023-02-15T22:38:19.153Z,25.23
2023-02-15T22:40:47.385Z,23.63
2023-02-15T22:43:27.531Z,18.90
2023-02-15T22:45:59.035Z,15.47
2023-02-15T22:48:25.481Z,15.87
2023-02-15T22:50:51.948Z,15.53
2023-02-15T22:53:19.171Z,18.30
2023-02-15T22:55:46.312Z,15.37
2023-02-15T22:58:16.903Z,13.53
2023-02-15T23:00:44.445Z,12.90
2023-02-15T23:03:16.964Z,16.20
2023-02-15T23:05:46.960Z,16.10
2023-02-15T23:08:14.213Z,15.83
2023-02-15T23:10:42.862Z,13.90
2023-02-15T23:13:29.677Z,15.03
2023-02-15T23:15:58.374Z,12.60
2023-02-15T23:18:27.987Z,13.23
2023-02-15T23:20:56.701Z,11.50
2023-02-15T23:23:27.508Z,15.20
2023-02-15T23:25:54.730Z,13.87
2023-02-15T23:28:25.808Z,14.13
2023-02-15T23:30:52.643Z,14.63
2023-02-15T23:33:20.983Z,12.17
2023-02-15T23:35:47.675Z,11.93
2023-02-15T23:38:25.524Z,10.57
2023-02-15T23:41:15.321Z,12.63
2023-02-15T23:43:44.384Z,15.03
2023-02-15T23:46:22.361Z,14.00
2023-02-15T23:48:48.839Z,14.50
2023-02-15T23:51:15.945Z,12.63
2023-02-15T23:53:42.348Z,11.27
2023-02-15T23:56:12.349Z,14.50
2023-02-15T23:58:41.816Z,19.80
